FAC001 MZBZ-MMUN
Flight info
| Callsign | FAC001 |
|---|---|
| Flight time | 0h 52m |
| Altitude | 33000 |
| Route | LITRA1D LITRA CTM UG765 PAULE PAULE3H |
| Aircraft | A320/M-SDE3FGHIRWY/LB1 |
Departure
| Time | 2026-05-07 21:04 |
|---|---|
| Airport | Philip S. W. Goldson International Airport (MZBZ) |
Arrival
| Time | 2026-05-07 21:56 |
|---|---|
| Airport | Cancún International Airport (MMUN) |
| Time | Latitude | Longitude | Altitude | Speed | Heading |
|---|---|---|---|---|---|
| 2026-05-07 20:41 | 17.53708 | -88.30653 | 18 ft | 0 kts | 166° |
| 2026-05-07 20:57 | 17.53728 | -88.30658 | 18 ft | 4 kts | 168° |
| 2026-05-07 20:57 | 17.53754 | -88.30662 | 20 ft | 4 kts | 187° |
| 2026-05-07 20:58 | 17.53773 | -88.30653 | 20 ft | 3 kts | 252° |
| 2026-05-07 20:58 | 17.53774 | -88.30650 | 21 ft | 0 kts | 255° |
| 2026-05-07 21:00 | 17.53774 | -88.30652 | 17 ft | 1 kts | 255° |
| 2026-05-07 21:00 | 17.53768 | -88.30678 | 17 ft | 12 kts | 255° |
| 2026-05-07 21:00 | 17.53744 | -88.30785 | 17 ft | 16 kts | 258° |
| 2026-05-07 21:00 | 17.53717 | -88.30907 | 17 ft | 18 kts | 256° |
| 2026-05-07 21:01 | 17.53684 | -88.31042 | 17 ft | 20 kts | 256° |
| 2026-05-07 21:01 | 17.53654 | -88.31192 | 17 ft | 22 kts | 256° |
| 2026-05-07 21:01 | 17.53619 | -88.31355 | 19 ft | 24 kts | 258° |
| 2026-05-07 21:01 | 17.53582 | -88.31534 | 17 ft | 26 kts | 257° |
| 2026-05-07 21:02 | 17.53543 | -88.31703 | 17 ft | 10 kts | 255° |
| 2026-05-07 21:02 | 17.53560 | -88.31773 | 18 ft | 11 kts | 332° |
| 2026-05-07 21:02 | 17.53607 | -88.31784 | 18 ft | 1 kts | 351° |
| 2026-05-07 21:02 | 17.53622 | -88.31787 | 18 ft | 7 kts | 350° |
| 2026-05-07 21:03 | 17.53700 | -88.31739 | 17 ft | 21 kts | 70° |
| 2026-05-07 21:03 | 17.53785 | -88.31354 | 15 ft | 87 kts | 76° |
| 2026-05-07 21:03 | 17.53962 | -88.30561 | 18 ft | 136 kts | 76° |
| 2026-05-07 21:03 | 17.54196 | -88.29469 | 217 ft | 160 kts | 78° |
| 2026-05-07 21:04 | 17.54470 | -88.28338 | 803 ft | 159 kts | 78° |
| 2026-05-07 21:04 | 17.54718 | -88.27216 | 1505 ft | 157 kts | 78° |
| 2026-05-07 21:04 | 17.54963 | -88.26090 | 2048 ft | 164 kts | 79° |
| 2026-05-07 21:04 | 17.55335 | -88.24882 | 2246 ft | 188 kts | 59° |
| 2026-05-07 21:05 | 17.56430 | -88.23997 | 2440 ft | 218 kts | 19° |
| 2026-05-07 21:05 | 17.58020 | -88.23815 | 2679 ft | 242 kts | 7° |
| 2026-05-07 21:05 | 17.59750 | -88.23748 | 3120 ft | 258 kts | 4° |
| 2026-05-07 21:05 | 17.61616 | -88.23694 | 3573 ft | 275 kts | 4° |
| 2026-05-07 21:06 | 17.63556 | -88.23643 | 4283 ft | 282 kts | 4° |
| 2026-05-07 21:06 | 17.65533 | -88.23589 | 5050 ft | 285 kts | 3° |
| 2026-05-07 21:06 | 17.67534 | -88.23529 | 5736 ft | 291 kts | 3° |
| 2026-05-07 21:06 | 17.69557 | -88.23461 | 5955 ft | 291 kts | 3° |
| 2026-05-07 21:07 | 17.71568 | -88.23479 | 6012 ft | 290 kts | 352° |
| 2026-05-07 21:07 | 17.73579 | -88.23860 | 6566 ft | 294 kts | 350° |
| 2026-05-07 21:07 | 17.75591 | -88.24244 | 7369 ft | 294 kts | 350° |
| 2026-05-07 21:07 | 17.77615 | -88.24620 | 8122 ft | 297 kts | 351° |
| 2026-05-07 21:08 | 17.79662 | -88.24998 | 8834 ft | 300 kts | 351° |
| 2026-05-07 21:08 | 17.81724 | -88.25384 | 9578 ft | 302 kts | 351° |
| 2026-05-07 21:08 | 17.83807 | -88.25777 | 10224 ft | 305 kts | 351° |
| 2026-05-07 21:08 | 17.85880 | -88.26167 | 10821 ft | 308 kts | 351° |
| 2026-05-07 21:09 | 17.87995 | -88.26563 | 11466 ft | 310 kts | 351° |
| 2026-05-07 21:09 | 17.90128 | -88.26963 | 12081 ft | 312 kts | 351° |
| 2026-05-07 21:09 | 17.92276 | -88.27365 | 12716 ft | 315 kts | 351° |
| 2026-05-07 21:09 | 17.94445 | -88.27771 | 13341 ft | 317 kts | 351° |
| 2026-05-07 21:10 | 17.96625 | -88.28180 | 13912 ft | 320 kts | 352° |
| 2026-05-07 21:10 | 17.98823 | -88.28592 | 14441 ft | 322 kts | 352° |
| 2026-05-07 21:10 | 18.01048 | -88.29013 | 14967 ft | 325 kts | 352° |
| 2026-05-07 21:10 | 18.03284 | -88.29435 | 15479 ft | 328 kts | 352° |
| 2026-05-07 21:11 | 18.05548 | -88.29861 | 15998 ft | 331 kts | 352° |
| 2026-05-07 21:11 | 18.07827 | -88.30289 | 16506 ft | 334 kts | 353° |
| 2026-05-07 21:11 | 18.12444 | -88.31159 | 17535 ft | 340 kts | 353° |
| 2026-05-07 21:12 | 18.14781 | -88.31600 | 18052 ft | 343 kts | 353° |
| 2026-05-07 21:12 | 18.17138 | -88.32045 | 18505 ft | 346 kts | 353° |
| 2026-05-07 21:12 | 18.19518 | -88.32493 | 18920 ft | 349 kts | 354° |
| 2026-05-07 21:12 | 18.21933 | -88.32773 | 19320 ft | 350 kts | 1° |
| 2026-05-07 21:13 | 18.24376 | -88.32825 | 19716 ft | 353 kts | 2° |
| 2026-05-07 21:13 | 18.26844 | -88.32871 | 20116 ft | 356 kts | 2° |
| 2026-05-07 21:13 | 18.29333 | -88.32920 | 20543 ft | 360 kts | 2° |
| 2026-05-07 21:13 | 18.31849 | -88.32973 | 20928 ft | 363 kts | 2° |
| 2026-05-07 21:14 | 18.34387 | -88.33026 | 21329 ft | 366 kts | 1° |
| 2026-05-07 21:14 | 18.36948 | -88.33079 | 21746 ft | 370 kts | 2° |
| 2026-05-07 21:14 | 18.39533 | -88.33133 | 22124 ft | 373 kts | 1° |
| 2026-05-07 21:14 | 18.42137 | -88.33185 | 22510 ft | 376 kts | 1° |
| 2026-05-07 21:15 | 18.44768 | -88.33236 | 22878 ft | 379 kts | 2° |
| 2026-05-07 21:15 | 18.47392 | -88.33082 | 23322 ft | 377 kts | 10° |
| 2026-05-07 21:15 | 18.49964 | -88.32576 | 23733 ft | 375 kts | 18° |
| 2026-05-07 21:15 | 18.52410 | -88.31744 | 24122 ft | 372 kts | 25° |
| 2026-05-07 21:16 | 18.54744 | -88.30590 | 24538 ft | 369 kts | 33° |
| 2026-05-07 21:16 | 18.56908 | -88.29165 | 24953 ft | 366 kts | 37° |
| 2026-05-07 21:16 | 18.59027 | -88.27671 | 25364 ft | 365 kts | 37° |
| 2026-05-07 21:16 | 18.61145 | -88.26190 | 25772 ft | 365 kts | 37° |
| 2026-05-07 21:17 | 18.63261 | -88.24711 | 26187 ft | 364 kts | 37° |
| 2026-05-07 21:17 | 18.65376 | -88.23231 | 26587 ft | 364 kts | 37° |
| 2026-05-07 21:17 | 18.67482 | -88.21755 | 26987 ft | 364 kts | 37° |
| 2026-05-07 21:17 | 18.69593 | -88.20274 | 27385 ft | 363 kts | 36° |
| 2026-05-07 21:18 | 18.71691 | -88.18800 | 27783 ft | 363 kts | 36° |
| 2026-05-07 21:18 | 18.73796 | -88.17324 | 28173 ft | 362 kts | 36° |
| 2026-05-07 21:18 | 18.75898 | -88.15851 | 28576 ft | 362 kts | 37° |
| 2026-05-07 21:18 | 18.77994 | -88.14377 | 28952 ft | 362 kts | 36° |
| 2026-05-07 21:19 | 18.80088 | -88.12900 | 29306 ft | 363 kts | 36° |
| 2026-05-07 21:19 | 18.82186 | -88.11421 | 29678 ft | 362 kts | 36° |
| 2026-05-07 21:19 | 18.84288 | -88.09938 | 29989 ft | 364 kts | 36° |
| 2026-05-07 21:19 | 18.86402 | -88.08447 | 30239 ft | 366 kts | 36° |
| 2026-05-07 21:20 | 18.88500 | -88.06965 | 30462 ft | 369 kts | 36° |
| 2026-05-07 21:20 | 18.90644 | -88.05453 | 30725 ft | 371 kts | 35° |
| 2026-05-07 21:20 | 18.92802 | -88.03932 | 30954 ft | 373 kts | 35° |
| 2026-05-07 21:20 | 18.94966 | -88.02408 | 31212 ft | 375 kts | 35° |
| 2026-05-07 21:21 | 18.97146 | -88.00877 | 31458 ft | 377 kts | 34° |
| 2026-05-07 21:21 | 18.99338 | -87.99335 | 31719 ft | 379 kts | 35° |
| 2026-05-07 21:21 | 19.01540 | -87.97781 | 31952 ft | 381 kts | 34° |
| 2026-05-07 21:21 | 19.03753 | -87.96218 | 32178 ft | 384 kts | 34° |
| 2026-05-07 21:22 | 19.05975 | -87.94647 | 32442 ft | 385 kts | 34° |
| 2026-05-07 21:22 | 19.08212 | -87.93063 | 32646 ft | 388 kts | 34° |
| 2026-05-07 21:22 | 19.10456 | -87.91471 | 32898 ft | 389 kts | 34° |
| 2026-05-07 21:22 | 19.12689 | -87.89890 | 33012 ft | 392 kts | 33° |
| 2026-05-07 21:23 | 19.17250 | -87.86672 | 33039 ft | 394 kts | 33° |
| 2026-05-07 21:23 | 19.21810 | -87.83444 | 33041 ft | 394 kts | 33° |
| 2026-05-07 21:24 | 19.26379 | -87.80210 | 33040 ft | 394 kts | 33° |
| 2026-05-07 21:24 | 19.30938 | -87.76981 | 33043 ft | 394 kts | 33° |
| 2026-05-07 21:25 | 19.35498 | -87.73737 | 33043 ft | 394 kts | 33° |
| 2026-05-07 21:25 | 19.40060 | -87.70500 | 33053 ft | 394 kts | 33° |
| 2026-05-07 21:26 | 19.44618 | -87.67263 | 33071 ft | 394 kts | 33° |
| 2026-05-07 21:26 | 19.49139 | -87.64049 | 33075 ft | 393 kts | 33° |
| 2026-05-07 21:27 | 19.53682 | -87.60818 | 33071 ft | 393 kts | 33° |
| 2026-05-07 21:27 | 19.58230 | -87.57586 | 33071 ft | 393 kts | 33° |
| 2026-05-07 21:28 | 19.62773 | -87.54349 | 33069 ft | 393 kts | 33° |
| 2026-05-07 21:28 | 19.67308 | -87.51104 | 33069 ft | 393 kts | 33° |
| 2026-05-07 21:29 | 19.71843 | -87.47859 | 33072 ft | 393 kts | 33° |
| 2026-05-07 21:29 | 19.76379 | -87.44612 | 33079 ft | 393 kts | 33° |
| 2026-05-07 21:30 | 19.80840 | -87.41259 | 33076 ft | 393 kts | 41° |
| 2026-05-07 21:30 | 19.83830 | -87.37625 | 33077 ft | 394 kts | 53° |
| 2026-05-07 21:31 | 19.87592 | -87.32167 | 33066 ft | 394 kts | 53° |
| 2026-05-07 21:31 | 19.90834 | -87.27476 | 33072 ft | 393 kts | 53° |
| 2026-05-07 21:32 | 19.93550 | -87.23546 | 33085 ft | 393 kts | 53° |
| 2026-05-07 21:32 | 19.96787 | -87.18864 | 33084 ft | 393 kts | 53° |
| 2026-05-07 21:33 | 19.99996 | -87.14211 | 33081 ft | 393 kts | 53° |
| 2026-05-07 21:33 | 20.03226 | -87.09519 | 33094 ft | 393 kts | 53° |
| 2026-05-07 21:34 | 20.06455 | -87.04827 | 33078 ft | 392 kts | 53° |
| 2026-05-07 21:34 | 20.09674 | -87.00143 | 33084 ft | 392 kts | 53° |
| 2026-05-07 21:35 | 20.12901 | -86.95452 | 33085 ft | 392 kts | 53° |
| 2026-05-07 21:35 | 20.16116 | -86.90757 | 33090 ft | 393 kts | 53° |
| 2026-05-07 21:36 | 20.19331 | -86.86057 | 33090 ft | 393 kts | 53° |
| 2026-05-07 21:36 | 20.22549 | -86.81359 | 33083 ft | 392 kts | 53° |
| 2026-05-07 21:37 | 20.25789 | -86.76675 | 33085 ft | 392 kts | 52° |
| 2026-05-07 21:37 | 20.29034 | -86.72003 | 33089 ft | 392 kts | 52° |
| 2026-05-07 21:38 | 20.32254 | -86.67351 | 33085 ft | 392 kts | 52° |
| 2026-05-07 21:38 | 20.35505 | -86.62678 | 33084 ft | 392 kts | 48° |
| 2026-05-07 21:39 | 20.37533 | -86.60787 | 33083 ft | 386 kts | 27° |
| 2026-05-07 21:39 | 20.40000 | -86.59746 | 33076 ft | 379 kts | 7° |
| 2026-05-07 21:39 | 20.42599 | -86.59640 | 33067 ft | 372 kts | 348° |
| 2026-05-07 21:39 | 20.45101 | -86.60272 | 33061 ft | 370 kts | 342° |
| 2026-05-07 21:40 | 20.50082 | -86.61713 | 33062 ft | 371 kts | 342° |
| 2026-05-07 21:40 | 20.55077 | -86.63151 | 33065 ft | 372 kts | 342° |
| 2026-05-07 21:41 | 20.60083 | -86.64583 | 33069 ft | 373 kts | 342° |
| 2026-05-07 21:41 | 20.65103 | -86.66022 | 33073 ft | 373 kts | 342° |
| 2026-05-07 21:42 | 20.70120 | -86.67466 | 33075 ft | 373 kts | 342° |
| 2026-05-07 21:42 | 20.75141 | -86.68916 | 33080 ft | 374 kts | 342° |
| 2026-05-07 21:43 | 20.80162 | -86.70364 | 33100 ft | 373 kts | 340° |
| 2026-05-07 21:43 | 20.82478 | -86.71514 | 33098 ft | 365 kts | 319° |
| 2026-05-07 21:43 | 20.84193 | -86.73451 | 33093 ft | 357 kts | 302° |
| 2026-05-07 21:44 | 20.86970 | -86.77857 | 33087 ft | 360 kts | 301° |
| 2026-05-07 21:44 | 20.89806 | -86.82416 | 32946 ft | 370 kts | 301° |
| 2026-05-07 21:45 | 20.91223 | -86.84686 | 32539 ft | 365 kts | 301° |
| 2026-05-07 21:45 | 20.92633 | -86.86938 | 31546 ft | 373 kts | 301° |
| 2026-05-07 21:45 | 20.94082 | -86.89249 | 30802 ft | 374 kts | 301° |
| 2026-05-07 21:45 | 20.95530 | -86.91557 | 30154 ft | 373 kts | 301° |
| 2026-05-07 21:46 | 20.96968 | -86.93850 | 29455 ft | 370 kts | 301° |
| 2026-05-07 21:46 | 20.98398 | -86.96130 | 28769 ft | 367 kts | 300° |
| 2026-05-07 21:46 | 20.99813 | -86.98388 | 28109 ft | 364 kts | 300° |
| 2026-05-07 21:46 | 21.01218 | -87.00629 | 27467 ft | 360 kts | 301° |
| 2026-05-07 21:47 | 21.02606 | -87.02847 | 26852 ft | 357 kts | 300° |
| 2026-05-07 21:47 | 21.03983 | -87.05052 | 26264 ft | 354 kts | 301° |
| 2026-05-07 21:47 | 21.05342 | -87.07230 | 25705 ft | 350 kts | 301° |
| 2026-05-07 21:47 | 21.06686 | -87.09386 | 25158 ft | 347 kts | 301° |
| 2026-05-07 21:48 | 21.08038 | -87.11558 | 24328 ft | 354 kts | 300° |
| 2026-05-07 21:48 | 21.09416 | -87.13773 | 23475 ft | 361 kts | 300° |
| 2026-05-07 21:48 | 21.10818 | -87.16028 | 22491 ft | 367 kts | 301° |
| 2026-05-07 21:48 | 21.12240 | -87.18319 | 21507 ft | 372 kts | 301° |
| 2026-05-07 21:49 | 21.13686 | -87.20640 | 20550 ft | 377 kts | 303° |
| 2026-05-07 21:49 | 21.15443 | -87.22739 | 19605 ft | 382 kts | 320° |
| 2026-05-07 21:49 | 21.17668 | -87.24280 | 18684 ft | 382 kts | 338° |
| 2026-05-07 21:49 | 21.20208 | -87.25014 | 17727 ft | 377 kts | 358° |
| 2026-05-07 21:50 | 21.22789 | -87.24827 | 16739 ft | 370 kts | 17° |
| 2026-05-07 21:50 | 21.25135 | -87.23819 | 15861 ft | 361 kts | 34° |
| 2026-05-07 21:50 | 21.27048 | -87.22137 | 14970 ft | 353 kts | 51° |
| 2026-05-07 21:50 | 21.28405 | -87.19964 | 13792 ft | 354 kts | 68° |
| 2026-05-07 21:51 | 21.29083 | -87.17416 | 12361 ft | 358 kts | 84° |
| 2026-05-07 21:51 | 21.29002 | -87.14732 | 10934 ft | 364 kts | 101° |
| 2026-05-07 21:51 | 21.28149 | -87.12161 | 9461 ft | 371 kts | 118° |
| 2026-05-07 21:51 | 21.26570 | -87.09972 | 8079 ft | 372 kts | 137° |
| 2026-05-07 21:52 | 21.24534 | -87.08303 | 6876 ft | 365 kts | 144° |
| 2026-05-07 21:52 | 21.22487 | -87.06738 | 5696 ft | 358 kts | 144° |
| 2026-05-07 21:52 | 21.20476 | -87.05208 | 4520 ft | 350 kts | 145° |
| 2026-05-07 21:52 | 21.18525 | -87.03726 | 3484 ft | 338 kts | 145° |
| 2026-05-07 21:53 | 21.16675 | -87.02317 | 3092 ft | 313 kts | 145° |
| 2026-05-07 21:53 | 21.14978 | -87.01023 | 2824 ft | 287 kts | 144° |
| 2026-05-07 21:53 | 21.13412 | -86.99828 | 2585 ft | 266 kts | 144° |
| 2026-05-07 21:53 | 21.12026 | -86.98629 | 2259 ft | 250 kts | 131° |
| 2026-05-07 21:54 | 21.11048 | -86.97150 | 1940 ft | 237 kts | 123° |
| 2026-05-07 21:54 | 21.10186 | -86.95701 | 1648 ft | 222 kts | 123° |
| 2026-05-07 21:54 | 21.09385 | -86.94400 | 1375 ft | 198 kts | 124° |
| 2026-05-07 21:54 | 21.08660 | -86.93237 | 1176 ft | 182 kts | 124° |
| 2026-05-07 21:55 | 21.07989 | -86.92164 | 960 ft | 164 kts | 124° |
| 2026-05-07 21:55 | 21.07401 | -86.91222 | 753 ft | 142 kts | 125° |
| 2026-05-07 21:55 | 21.06856 | -86.90352 | 567 ft | 140 kts | 126° |
| 2026-05-07 21:55 | 21.06319 | -86.89492 | 380 ft | 137 kts | 126° |
| 2026-05-07 21:56 | 21.05785 | -86.88639 | 204 ft | 136 kts | 124° |
| 2026-05-07 21:56 | 21.05252 | -86.87788 | 28 ft | 136 kts | 124° |
| 2026-05-07 21:56 | 21.04793 | -86.87054 | 21 ft | 100 kts | 123° |
| 2026-05-07 21:56 | 21.04522 | -86.86621 | 21 ft | 28 kts | 124° |
| 2026-05-07 21:57 | 21.04457 | -86.86521 | 21 ft | 16 kts | 132° |
| 2026-05-07 21:57 | 21.04370 | -86.86437 | 20 ft | 18 kts | 149° |
| 2026-05-07 21:57 | 21.04257 | -86.86365 | 19 ft | 15 kts | 149° |
| 2026-05-07 21:57 | 21.04243 | -86.86357 | 19 ft | 0 kts | 154° |
| 2026-05-07 21:59 | 21.04240 | -86.86355 | 19 ft | 3 kts | 155° |
| 2026-05-07 21:59 | 21.04133 | -86.86302 | 18 ft | 17 kts | 152° |
| 2026-05-07 21:59 | 21.04045 | -86.86223 | 17 ft | 17 kts | 174° |
| 2026-05-07 22:00 | 21.03934 | -86.86288 | 18 ft | 20 kts | 214° |
| 2026-05-07 22:00 | 21.03814 | -86.86373 | 18 ft | 22 kts | 213° |
| 2026-05-07 22:00 | 21.03680 | -86.86466 | 18 ft | 24 kts | 213° |
| 2026-05-07 22:00 | 21.03549 | -86.86561 | 18 ft | 22 kts | 214° |
| 2026-05-07 22:01 | 21.03418 | -86.86653 | 18 ft | 24 kts | 213° |
| 2026-05-07 22:01 | 21.03355 | -86.86770 | 21 ft | 19 kts | 296° |
| 2026-05-07 22:01 | 21.03438 | -86.86778 | 32 ft | 14 kts | 32° |
| 2026-05-07 22:01 | 21.03527 | -86.86715 | 18 ft | 16 kts | 34° |
| 2026-05-07 22:02 | 21.03588 | -86.86687 | 18 ft | 5 kts | 331° |
| 2026-05-07 22:02 | 21.03613 | -86.86720 | 18 ft | 7 kts | 303° |
| 2026-05-07 22:02 | 21.03630 | -86.86748 | 19 ft | 5 kts | 302° |
| 2026-05-07 22:02 | 21.03633 | -86.86753 | 19 ft | 0 kts | 302° |